首页
METAR-TAF:

METAR-TAF

机场 :

Northolt, 英格兰

纬度: 51-33N, 经度: 000-25W, 海拔: 38米

当前天气观测

该预报发布于50分钟前的02:50 UTC
风速10节,风向西转西北
温度 3°C
湿度 75%
气压 998 hPa
能见度10公里或以上

METAR: EGWU 260250Z AUTO 29010KT 9999 // SCT170/// 03/M01 Q0998

时间: 03:40 (03:40 UTC)

预报

该预报发布于10小时和59分钟前的16:41 UTC
预报有效从25日的 18点(UTC)到 26日的 12点(UTC)
风速12节,风向西
能见度10公里或以上
散云层高于3000英尺
几率 40% :
短暂存在
从 25日的 18点(UTC)到 26日的 03点(UTC)
能見度: 7000
多云层高于1600英尺
阵雨
几率 30% :
短暂存在
从 25日的 19点(UTC)到 26日的 01点(UTC)
风速16节,风向西,有时为26节阵风
能見度: 3000
多云层高于1400英尺, 积雨云.
阵雨, 雪
短暂存在
从 26日的 07点(UTC)到 26日的 10点(UTC)
散云层高于2000英尺

TAF: EGWU 251641Z 2518/2612 27012KT 9999 SCT030 PROB40 TEMPO 2518/2603 7000 SHRA BKN016 PROB30 TEMPO 2519/2601 27016G26KT 3000 SHRASN BKN014CB TEMPO 2607/2610 SCT020

超过4000个机场的气象观测和天气预报(METAR&TAF报告)。

可查询的气象台以黄色和红色小点在地图上表示。

将鼠标移到小点上方,可查看气象台名称。

然后点击查看天气观测和预报。

如需切换地图:点击带黑十字的绿色按钮放大地图;点击带横线的绿色按钮缩小地图;或者点击绿色箭头查看邻近地区的地图。


METAR-TAF: